Time;durP1;ratioP1;P1;durP2;ratioP2;P2;SDS_P1;SDS_P2;PMS_P1;PMS_P2;Temp;Humidity;BMP_temperature;BMP_pressure;BME280_temperature;BME280_humidity;BME280_pressure;Samples;Min_cycle;Max_cycle;Signal;HPM_P1;HPM_P2
2021/11/28 00:00:28;;;;;;;10.02;6.80;;;2.90;99.90;;;;;;5055384;28;20342;-62
2021/11/28 00:02:55;;;;;;;18.55;7.95;;;2.90;99.90;;;;;;5055298;28;20032;-63
2021/11/28 00:05:24;;;;;;;17.40;8.07;;;2.90;99.90;;;;;;5037791;28;20112;-61
2021/11/28 00:11:24;;;;;;;12.05;7.18;;;3.00;99.90;;;;;;5055182;28;20106;-63
2021/11/28 00:15:54;;;;;;;14.82;7.70;;;2.80;99.90;;;;;;5058234;28;20029;-59
2021/11/28 00:18:22;;;;;;;14.20;7.07;;;2.80;99.90;;;;;;5037456;28;20354;-61
2021/11/28 00:20:48;;;;;;;14.15;6.70;;;2.80;99.90;;;;;;5054970;28;20086;-61
2021/11/28 00:23:14;;;;;;;15.27;8.48;;;2.80;99.90;;;;;;5055010;28;20100;-62
2021/11/28 00:25:39;;;;;;;16.23;7.68;;;2.80;99.90;;;;;;5054880;28;20080;-62
2021/11/28 00:28:12;;;;;;;13.02;7.45;;;2.80;99.90;;;;;;5055003;28;20029;-62
2021/11/28 00:30:38;;;;;;;15.48;7.72;;;2.90;99.90;;;;;;5055045;28;20032;-63
2021/11/28 00:33:04;;;;;;;13.38;7.10;;;2.90;99.90;;;;;;5037073;28;20021;-62
2021/11/28 00:35:29;;;;;;;13.30;8.23;;;2.90;99.90;;;;;;5054838;28;20158;-62
2021/11/28 00:37:55;;;;;;;12.90;7.00;;;2.90;99.90;;;;;;5054758;28;20083;-62
2021/11/28 00:40:20;;;;;;;14.48;7.13;;;2.90;99.90;;;;;;5054832;28;20071;-61
2021/11/28 00:42:46;;;;;;;15.50;7.43;;;2.90;99.90;;;;;;5030488;28;20028;-61
2021/11/28 00:45:12;;;;;;;17.77;8.18;;;2.90;99.90;;;;;;5059615;28;20017;-61
2021/11/28 00:47:37;;;;;;;15.70;7.45;;;2.90;99.90;;;;;;5036738;28;20129;-62
2021/11/28 00:52:34;;;;;;;12.43;6.55;;;2.90;99.90;;;;;;5054263;28;20025;-62
2021/11/28 00:55:00;;;;;;;12.52;7.00;;;2.80;99.90;;;;;;5054465;28;20021;-61
2021/11/28 00:57:27;;;;;;;14.25;7.28;;;2.90;99.90;;;;;;5054276;28;20029;-61
2021/11/28 00:59:54;;;;;;;14.90;7.00;;;2.90;99.90;;;;;;5054375;28;20021;-61
2021/11/28 01:02:22;;;;;;;15.05;7.60;;;2.90;99.90;;;;;;5036802;28;20045;-61
2021/11/28 01:04:48;;;;;;;13.85;7.25;;;2.90;99.90;;;;;;5054178;28;20458;-63
2021/11/28 01:07:16;;;;;;;13.20;7.10;;;3.00;99.90;;;;;;5053951;28;20040;-62
2021/11/28 01:09:41;;;;;;;12.68;6.85;;;3.00;99.90;;;;;;5054092;28;20037;-62
2021/11/28 01:12:08;;;;;;;17.02;8.13;;;3.00;99.90;;;;;;5053807;28;20043;-62
2021/11/28 01:14:34;;;;;;;9.70;6.65;;;3.10;99.90;;;;;;5054563;28;20124;-62
2021/11/28 01:17:02;;;;;;;17.90;7.57;;;3.10;99.90;;;;;;5053697;28;20020;-62
2021/11/28 01:19:31;;;;;;;11.77;7.93;;;3.10;99.90;;;;;;5053749;28;20484;-61
2021/11/28 01:22:02;;;;;;;11.73;7.35;;;3.10;99.90;;;;;;5054056;28;20025;-61
2021/11/28 01:24:30;;;;;;;18.27;8.38;;;3.10;99.90;;;;;;5053731;28;20063;-62
2021/11/28 01:26:59;;;;;;;12.50;7.78;;;3.10;99.90;;;;;;5053888;28;20108;-62
2021/11/28 01:29:29;;;;;;;8.70;6.30;;;3.10;99.90;;;;;;5053865;28;20044;-60
2021/11/28 01:31:55;;;;;;;11.68;6.63;;;3.20;99.90;;;;;;5053518;28;20048;-62
2021/11/28 01:34:21;;;;;;;11.20;6.72;;;3.10;99.90;;;;;;5053907;28;20422;-62
2021/11/28 01:36:49;;;;;;;13.00;7.05;;;3.20;99.90;;;;;;5053667;28;20358;-63
2021/11/28 01:39:17;;;;;;;15.80;7.88;;;3.20;99.90;;;;;;5053568;28;20017;-62
2021/11/28 01:41:46;;;;;;;19.17;8.18;;;3.20;99.90;;;;;;5053515;28;20032;-60
2021/11/28 01:44:14;;;;;;;11.18;6.78;;;3.10;99.90;;;;;;5056309;28;20016;-62
2021/11/28 01:46:40;;;;;;;11.35;6.30;;;3.10;99.90;;;;;;5052821;28;20029;-61
2021/11/28 01:49:08;;;;;;;13.75;6.65;;;3.20;99.90;;;;;;5035817;28;20033;-62
2021/11/28 01:51:40;;;;;;;15.88;7.38;;;3.20;99.90;;;;;;5053499;28;20053;-62
2021/11/28 01:54:11;;;;;;;11.65;6.93;;;3.20;99.90;;;;;;5053556;28;20381;-62
2021/11/28 01:56:39;;;;;;;18.83;7.25;;;3.20;99.90;;;;;;5053533;28;20488;-62
2021/11/28 01:59:06;;;;;;;13.73;7.22;;;3.20;99.90;;;;;;5053311;28;20036;-63
2021/11/28 02:01:33;;;;;;;11.98;6.90;;;3.20;99.90;;;;;;5053456;28;20296;-63
2021/11/28 02:03:59;;;;;;;9.30;5.88;;;3.20;99.90;;;;;;5035729;28;20057;-61
2021/11/28 02:06:25;;;;;;;9.32;5.80;;;3.20;99.90;;;;;;5057183;28;20508;-63
2021/11/28 02:08:53;;;;;;;12.35;6.75;;;3.20;99.90;;;;;;5053130;28;20033;-63
2021/11/28 02:11:21;;;;;;;9.00;6.28;;;3.10;99.90;;;;;;5053194;28;20033;-63
2021/11/28 02:13:47;;;;;;;8.98;6.20;;;3.10;99.90;;;;;;5054403;28;20056;-61
2021/11/28 02:16:13;;;;;;;8.88;5.97;;;3.10;99.90;;;;;;5057190;28;20059;-61
2021/11/28 02:18:42;;;;;;;16.63;7.78;;;3.10;99.90;;;;;;5053178;28;20017;-61
2021/11/28 02:21:11;;;;;;;9.48;6.97;;;3.10;99.90;;;;;;5052999;28;20438;-62
2021/11/28 02:23:40;;;;;;;11.95;6.65;;;3.10;99.90;;;;;;5052834;28;20033;-62
2021/11/28 02:26:09;;;;;;;11.57;5.43;;;3.20;99.90;;;;;;5052913;28;20138;-61
2021/11/28 02:28:36;;;;;;;14.27;6.72;;;3.10;99.90;;;;;;5053062;28;20043;-62
2021/11/28 02:31:02;;;;;;;17.52;7.00;;;3.10;99.90;;;;;;5055437;28;20070;-62
2021/11/28 02:33:32;;;;;;;12.30;6.63;;;3.10;99.90;;;;;;5039281;28;20029;-61
2021/11/28 02:36:01;;;;;;;10.07;5.75;;;3.20;99.90;;;;;;5039222;28;20104;-61
2021/11/28 02:38:27;;;;;;;11.38;6.22;;;3.20;99.90;;;;;;5056967;28;20059;-62
2021/11/28 02:40:53;;;;;;;13.20;5.70;;;3.30;99.90;;;;;;5056643;28;20068;-61
2021/11/28 02:43:21;;;;;;;14.48;6.80;;;3.20;99.90;;;;;;5056539;28;20064;-61
2021/11/28 02:45:47;;;;;;;10.88;6.13;;;3.20;99.90;;;;;;5040090;28;20086;-62
2021/11/28 02:48:15;;;;;;;9.52;5.75;;;3.30;99.90;;;;;;5039048;28;20421;-62
2021/11/28 02:50:42;;;;;;;9.05;5.47;;;3.30;99.90;;;;;;5056769;28;20086;-62
2021/11/28 02:53:09;;;;;;;9.07;5.30;;;3.20;99.90;;;;;;5056465;28;20469;-62
2021/11/28 02:55:40;;;;;;;12.52;6.38;;;3.20;99.90;;;;;;5056447;28;20033;-62
2021/11/28 02:58:07;;;;;;;13.02;5.47;;;3.20;99.90;;;;;;5056634;28;20520;-62
2021/11/28 03:00:35;;;;;;;12.10;6.05;;;3.20;99.90;;;;;;5056287;28;20337;-62
2021/11/28 03:03:01;;;;;;;10.73;6.10;;;3.40;99.90;;;;;;5056036;28;20029;-60
2021/11/28 03:05:27;;;;;;;13.35;5.50;;;3.50;99.90;;;;;;5056335;28;20024;-61
2021/11/28 03:07:52;;;;;;;10.40;5.28;;;3.50;99.90;;;;;;5056243;28;20156;-61
2021/11/28 03:10:41;;;;;;;12.07;6.18;;;3.50;99.90;;;;;;5056007;28;20139;-62
2021/11/28 03:13:19;;;;;;;10.65;4.97;;;3.40;99.90;;;;;;5056286;28;20317;-62
2021/11/28 03:15:46;;;;;;;11.23;5.70;;;3.30;99.90;;;;;;5058953;28;20124;-62
2021/11/28 03:18:15;;;;;;;9.18;5.30;;;3.40;99.90;;;;;;5038259;28;20021;-62
2021/11/28 03:20:44;;;;;;;12.27;5.20;;;3.30;99.90;;;;;;5056227;28;20021;-62
2021/11/28 03:23:14;;;;;;;11.75;6.30;;;3.30;99.90;;;;;;5055964;28;20032;-62
2021/11/28 03:25:42;;;;;;;9.07;5.27;;;3.30;99.90;;;;;;5056093;28;20078;-62
2021/11/28 03:28:13;;;;;;;11.98;5.97;;;3.30;99.90;;;;;;5055771;28;20342;-60
2021/11/28 03:30:39;;;;;;;8.52;5.53;;;3.40;99.90;;;;;;5038627;28;20035;-61
2021/11/28 03:33:05;;;;;;;10.43;5.45;;;3.30;99.90;;;;;;5037826;28;20029;-61
2021/11/28 03:35:31;;;;;;;12.63;7.30;;;3.30;99.90;;;;;;5055712;28;20036;-61
2021/11/28 03:37:59;;;;;;;7.43;5.32;;;3.40;99.90;;;;;;5055654;28;20079;-62
2021/11/28 03:40:24;;;;;;;11.20;5.53;;;3.40;99.90;;;;;;5038078;28;20395;-61
2021/11/28 03:42:53;;;;;;;11.20;6.00;;;3.30;99.90;;;;;;5055675;28;20083;-62
2021/11/28 03:45:19;;;;;;;11.93;5.68;;;3.30;99.90;;;;;;5066461;28;20020;-61
2021/11/28 03:47:47;;;;;;;9.57;4.90;;;3.40;99.90;;;;;;5055547;28;20461;-62
2021/11/28 03:50:12;;;;;;;10.70;5.60;;;3.40;99.90;;;;;;5055657;28;20099;-62
2021/11/28 03:52:42;;;;;;;9.15;4.95;;;3.40;99.90;;;;;;5055283;28;20053;-63
2021/11/28 03:55:09;;;;;;;9.80;5.85;;;3.40;99.90;;;;;;5055406;28;20113;-62
2021/11/28 03:57:37;;;;;;;9.93;4.78;;;3.50;99.90;;;;;;5055115;28;20017;-63
2021/11/28 04:00:08;;;;;;;8.25;5.18;;;3.50;99.90;;;;;;5038047;28;20454;-62
2021/11/28 04:02:36;;;;;;;12.35;4.82;;;3.40;99.90;;;;;;5055287;28;20029;-61
2021/11/28 04:05:04;;;;;;;8.82;4.78;;;3.40;99.90;;;;;;5055434;28;20033;-64
2021/11/28 04:07:32;;;;;;;7.78;5.63;;;3.30;99.90;;;;;;5048481;28;20107;-62
2021/11/28 04:09:59;;;;;;;12.15;4.90;;;3.30;99.90;;;;;;5037411;28;20036;-61
2021/11/28 04:12:24;;;;;;;8.93;5.40;;;3.30;99.90;;;;;;5031053;28;20029;-62
2021/11/28 04:14:50;;;;;;;10.38;4.65;;;3.20;99.90;;;;;;5033075;28;20032;-61
2021/11/28 04:17:18;;;;;;;11.73;5.32;;;3.30;99.90;;;;;;5055204;28;20029;-62
2021/11/28 04:19:44;;;;;;;10.23;5.20;;;3.30;99.90;;;;;;5036684;28;20036;-62
2021/11/28 04:22:10;;;;;;;13.50;5.43;;;3.30;99.90;;;;;;5055012;28;20457;-62
2021/11/28 04:24:35;;;;;;;10.77;5.22;;;3.20;99.90;;;;;;5054810;28;20021;-62
2021/11/28 04:27:01;;;;;;;8.60;5.18;;;3.10;99.90;;;;;;5037240;28;20059;-63
2021/11/28 04:29:27;;;;;;;12.50;5.05;;;3.20;99.90;;;;;;5054762;28;20033;-64
2021/11/28 04:31:52;;;;;;;9.13;4.78;;;3.20;99.90;;;;;;5054919;28;20024;-62
2021/11/28 04:34:18;;;;;;;9.27;5.60;;;3.10;99.90;;;;;;5037095;28;20083;-62
2021/11/28 04:36:44;;;;;;;7.45;4.65;;;3.10;99.90;;;;;;5054751;28;20025;-63
2021/11/28 04:39:09;;;;;;;9.73;4.70;;;3.20;99.90;;;;;;5054621;28;20307;-62
2021/11/28 04:41:40;;;;;;;7.32;4.40;;;3.30;99.90;;;;;;5054516;28;20032;-63
2021/11/28 04:44:06;;;;;;;8.15;4.95;;;3.30;99.90;;;;;;5057984;28;20399;-61
2021/11/28 04:46:32;;;;;;;8.15;5.05;;;3.40;99.90;;;;;;5054449;28;20067;-62
2021/11/28 04:48:57;;;;;;;8.90;5.13;;;3.40;99.90;;;;;;5054510;28;20032;-62
2021/11/28 04:51:23;;;;;;;10.13;5.60;;;3.40;99.90;;;;;;5054442;28;20025;-62
2021/11/28 04:53:49;;;;;;;9.07;5.40;;;3.40;99.90;;;;;;5036233;28;20067;-63
2021/11/28 04:56:14;;;;;;;12.05;5.47;;;3.50;99.90;;;;;;5054339;28;20220;-62
2021/11/28 04:58:40;;;;;;;11.25;5.15;;;3.50;99.90;;;;;;5036344;28;20021;-62
2021/11/28 05:01:08;;;;;;;10.75;5.60;;;3.40;99.90;;;;;;5053934;28;20028;-62
2021/11/28 05:03:33;;;;;;;8.63;5.35;;;3.40;99.90;;;;;;5054120;28;20060;-63
2021/11/28 05:05:59;;;;;;;10.75;5.18;;;3.40;99.90;;;;;;5036501;28;20051;-62
2021/11/28 05:08:27;;;;;;;10.25;5.30;;;3.40;99.90;;;;;;5054105;28;20284;-62
2021/11/28 05:10:55;;;;;;;8.20;5.20;;;3.40;99.90;;;;;;5053767;28;20048;-62
2021/11/28 05:13:23;;;;;;;8.15;4.72;;;3.50;99.90;;;;;;5053676;28;20029;-63
2021/11/28 05:15:53;;;;;;;7.95;5.38;;;3.50;99.90;;;;;;5041771;28;20040;-62
2021/11/28 05:18:18;;;;;;;8.15;5.20;;;3.70;99.90;;;;;;5053809;28;20029;-63
2021/11/28 05:20:47;;;;;;;8.77;5.68;;;3.70;99.90;;;;;;5053705;28;20353;-62
2021/11/28 05:23:13;;;;;;;8.48;5.57;;;3.60;99.90;;;;;;5054008;28;20101;-63
2021/11/28 05:25:39;;;;;;;11.23;5.90;;;3.50;99.90;;;;;;5053738;28;20392;-63
2021/11/28 05:28:07;;;;;;;10.23;6.00;;;3.40;99.90;;;;;;5053869;28;20187;-62
2021/11/28 05:30:35;;;;;;;9.10;5.18;;;3.40;99.90;;;;;;5053813;28;20040;-63
2021/11/28 05:33:01;;;;;;;13.13;5.82;;;3.40;99.90;;;;;;5053165;28;20025;-64
2021/11/28 05:35:26;;;;;;;10.95;5.95;;;3.50;99.90;;;;;;5053744;28;20079;-63
2021/11/28 05:37:52;;;;;;;10.77;5.13;;;3.50;99.90;;;;;;5053594;28;20430;-64
2021/11/28 05:40:18;;;;;;;13.02;6.15;;;3.50;99.90;;;;;;5053682;28;20028;-63
2021/11/28 05:42:46;;;;;;;9.68;5.63;;;3.50;99.90;;;;;;5053648;28;20024;-63
2021/11/28 05:45:12;;;;;;;9.80;6.28;;;3.50;99.90;;;;;;5054772;28;20100;-63
2021/11/28 05:47:38;;;;;;;9.90;6.13;;;3.50;99.90;;;;;;5035867;28;20033;-64
2021/11/28 05:50:04;;;;;;;7.88;6.03;;;3.50;99.90;;;;;;5053666;28;20024;-63
2021/11/28 05:52:32;;;;;;;13.07;5.97;;;3.60;99.90;;;;;;5053314;28;20035;-63
2021/11/28 05:55:01;;;;;;;13.05;5.55;;;3.60;99.90;;;;;;5053434;28;20029;-63
2021/11/28 05:57:27;;;;;;;8.10;5.35;;;3.60;99.90;;;;;;5053314;28;20021;-63
2021/11/28 05:59:53;;;;;;;9.82;6.50;;;3.60;99.90;;;;;;5053569;28;20401;-63
2021/11/28 06:02:18;;;;;;;10.50;5.55;;;3.60;99.90;;;;;;5053485;28;20366;-62
2021/11/28 06:04:44;;;;;;;9.00;5.80;;;3.70;99.90;;;;;;5054242;28;20358;-63
2021/11/28 06:07:10;;;;;;;17.00;6.85;;;3.60;99.90;;;;;;5057438;28;20104;-63
2021/11/28 06:09:35;;;;;;;10.85;5.25;;;3.60;99.90;;;;;;5057408;28;20502;-63
2021/11/28 06:12:01;;;;;;;11.82;5.82;;;3.60;99.90;;;;;;5039748;28;20025;-63
2021/11/28 06:14:27;;;;;;;11.13;6.18;;;3.70;99.90;;;;;;5046934;28;20021;-63
2021/11/28 06:16:55;;;;;;;9.02;5.72;;;3.70;99.90;;;;;;5057294;28;20040;-63
2021/11/28 06:19:23;;;;;;;11.20;5.93;;;3.60;99.90;;;;;;5057089;28;20044;-63
2021/11/28 06:21:49;;;;;;;11.48;6.00;;;3.60;99.90;;;;;;5057141;28;20334;-63
2021/11/28 06:24:15;;;;;;;8.82;6.03;;;3.50;99.90;;;;;;5057145;28;20021;-63
2021/11/28 06:26:41;;;;;;;9.68;6.25;;;3.60;99.90;;;;;;5057000;28;20396;-63
2021/11/28 06:29:06;;;;;;;9.60;5.75;;;3.50;99.90;;;;;;5057225;28;20052;-63
2021/11/28 06:31:32;;;;;;;9.77;7.05;;;3.70;99.90;;;;;;5057156;28;20024;-63
2021/11/28 06:33:58;;;;;;;10.60;6.18;;;3.70;99.90;;;;;;5057014;28;20037;-64
2021/11/28 06:36:26;;;;;;;11.95;5.90;;;3.70;99.90;;;;;;5056863;28;20025;-63
2021/11/28 06:38:52;;;;;;;9.25;5.43;;;3.60;99.90;;;;;;5057008;28;20033;-63
2021/11/28 06:41:26;;;;;;;7.35;5.43;;;3.70;99.90;;;;;;5056917;28;20025;-63
2021/11/28 06:43:55;;;;;;;8.85;5.97;;;3.70;99.90;;;;;;5058998;28;20044;-64
2021/11/28 06:46:21;;;;;;;11.85;6.10;;;3.60;99.90;;;;;;5060102;28;20125;-63
2021/11/28 06:48:47;;;;;;;10.65;6.32;;;3.60;99.90;;;;;;5056881;28;20151;-63
2021/11/28 06:51:13;;;;;;;9.32;6.20;;;3.50;99.90;;;;;;5056449;28;20033;-62
2021/11/28 06:53:39;;;;;;;10.32;6.32;;;3.40;99.90;;;;;;5056668;28;20032;-63
2021/11/28 06:56:07;;;;;;;10.82;5.85;;;3.40;99.90;;;;;;5056529;28;20032;-62
2021/11/28 06:58:34;;;;;;;10.98;6.78;;;3.40;99.90;;;;;;5056641;28;20044;-63
2021/11/28 07:01:00;;;;;;;11.50;6.35;;;3.60;99.90;;;;;;5038934;28;20028;-63
2021/11/28 07:03:28;;;;;;;8.50;5.40;;;3.60;99.90;;;;;;5056615;28;20035;-63
2021/11/28 07:05:56;;;;;;;10.75;6.95;;;3.60;99.90;;;;;;5049979;28;20036;-63
2021/11/28 07:08:22;;;;;;;9.88;6.18;;;3.60;99.90;;;;;;5056476;28;20025;-62
2021/11/28 07:10:48;;;;;;;10.68;5.53;;;3.70;99.90;;;;;;5056112;28;20444;-62
2021/11/28 07:13:14;;;;;;;12.38;6.28;;;3.70;99.90;;;;;;5056441;28;20025;-62
2021/11/28 07:15:39;;;;;;;10.43;5.82;;;3.60;99.90;;;;;;5057123;28;20029;-63
2021/11/28 07:18:09;;;;;;;8.55;5.75;;;3.60;99.90;;;;;;5056250;28;20461;-62
2021/11/28 07:20:37;;;;;;;11.68;6.40;;;3.70;99.90;;;;;;5056312;28;20099;-62
2021/11/28 07:23:03;;;;;;;9.75;6.35;;;3.80;99.90;;;;;;5056117;28;20021;-62
2021/11/28 07:25:29;;;;;;;10.07;6.45;;;3.80;99.90;;;;;;5056110;28;20025;-62
2021/11/28 07:27:58;;;;;;;11.25;5.93;;;3.80;99.90;;;;;;5056076;28;20025;-62
2021/11/28 07:30:27;;;;;;;11.85;6.82;;;3.80;99.90;;;;;;5055631;28;20025;-63
2021/11/28 07:32:55;;;;;;;14.23;6.28;;;3.80;99.90;;;;;;5056076;28;20025;-62
2021/11/28 07:35:21;;;;;;;7.72;5.65;;;3.80;99.90;;;;;;5055728;28;20454;-62
2021/11/28 07:37:49;;;;;;;12.88;5.85;;;3.80;99.90;;;;;;5055802;28;20025;-62
2021/11/28 07:40:15;;;;;;;13.07;6.45;;;3.80;99.90;;;;;;5055954;28;20032;-62
2021/11/28 07:42:41;;;;;;;11.80;6.78;;;3.80;99.90;;;;;;5055583;28;20029;-64
2021/11/28 07:45:09;;;;;;;9.52;6.22;;;3.90;99.90;;;;;;5059446;28;20438;-61
2021/11/28 07:47:37;;;;;;;9.23;5.80;;;3.90;99.90;;;;;;5055603;28;20032;-62
2021/11/28 07:50:06;;;;;;;7.88;5.55;;;3.90;99.90;;;;;;5055767;28;20319;-62
2021/11/28 07:52:32;;;;;;;9.00;5.80;;;3.90;99.90;;;;;;5037745;28;20140;-62
2021/11/28 07:55:01;;;;;;;7.65;5.80;;;4.00;99.90;;;;;;5038084;28;20106;-61
2021/11/28 07:57:29;;;;;;;10.73;5.95;;;4.00;99.90;;;;;;5055843;28;20033;-63
2021/11/28 07:59:57;;;;;;;10.77;5.72;;;4.10;99.90;;;;;;5055656;28;20017;-62
2021/11/28 08:02:22;;;;;;;7.95;6.35;;;4.10;99.90;;;;;;5055189;28;20446;-64
2021/11/28 08:04:53;;;;;;;9.05;6.75;;;4.20;99.90;;;;;;5049012;28;20040;-62
2021/11/28 08:07:19;;;;;;;10.80;6.20;;;4.10;99.90;;;;;;5054997;28;20067;-62
2021/11/28 08:09:49;;;;;;;9.05;5.97;;;4.20;99.90;;;;;;5037548;28;20134;-62
2021/11/28 08:12:15;;;;;;;10.88;6.18;;;4.30;99.90;;;;;;5055341;28;20039;-62
2021/11/28 08:14:40;;;;;;;9.07;6.82;;;4.20;99.90;;;;;;5043681;28;20774;-62
2021/11/28 08:17:07;;;;;;;12.27;7.35;;;4.20;99.90;;;;;;5055042;28;20506;-63
2021/11/28 08:19:37;;;;;;;9.07;6.07;;;4.30;99.90;;;;;;5054967;28;20039;-62
2021/11/28 08:22:03;;;;;;;9.93;5.80;;;4.30;99.90;;;;;;5055144;28;20033;-61
2021/11/28 08:24:31;;;;;;;9.55;5.97;;;4.30;99.90;;;;;;5054784;28;20039;-62
2021/11/28 08:26:57;;;;;;;8.43;5.63;;;4.30;99.90;;;;;;5054216;28;20037;-62
2021/11/28 08:29:25;;;;;;;9.73;5.90;;;4.40;99.90;;;;;;5054386;28;20025;-62
2021/11/28 08:31:51;;;;;;;14.20;6.82;;;4.40;99.90;;;;;;5054771;28;20085;-62
2021/11/28 08:34:17;;;;;;;9.02;5.75;;;4.50;99.90;;;;;;5054899;28;20025;-62
2021/11/28 08:36:43;;;;;;;11.25;6.18;;;4.50;99.90;;;;;;5052702;28;20390;-61
2021/11/28 08:39:08;;;;;;;9.02;6.10;;;4.60;99.90;;;;;;5050297;28;20029;-64
2021/11/28 08:41:34;;;;;;;7.80;5.57;;;4.60;99.90;;;;;;5054626;28;20473;-61
2021/11/28 08:44:02;;;;;;;10.15;6.85;;;4.60;99.90;;;;;;5056045;28;20115;-60
2021/11/28 08:46:28;;;;;;;12.10;6.30;;;4.60;99.90;;;;;;5052179;28;20021;-63
2021/11/28 08:48:57;;;;;;;10.68;6.65;;;4.50;99.90;;;;;;5054447;28;20400;-63
2021/11/28 08:51:25;;;;;;;10.55;6.03;;;4.50;99.90;;;;;;5054810;28;20098;-63
2021/11/28 08:53:52;;;;;;;11.20;6.32;;;4.60;99.90;;;;;;5054314;28;20364;-62
2021/11/28 08:56:17;;;;;;;10.70;6.28;;;4.60;99.90;;;;;;5054055;28;20044;-62
2021/11/28 08:58:43;;;;;;;12.05;7.85;;;4.60;99.90;;;;;;5054363;28;20029;-61
2021/11/28 09:01:11;;;;;;;8.65;6.30;;;4.70;99.90;;;;;;5036504;28;20021;-63
2021/11/28 09:03:42;;;;;;;13.55;6.78;;;4.70;99.90;;;;;;5054276;28;20036;-61
2021/11/28 09:06:10;;;;;;;11.10;6.30;;;4.80;99.90;;;;;;5054060;28;20032;-61
2021/11/28 09:08:37;;;;;;;9.75;6.88;;;4.80;99.90;;;;;;5053604;28;20323;-61
2021/11/28 09:11:05;;;;;;;9.20;5.90;;;4.80;99.90;;;;;;5053248;28;20040;-63
2021/11/28 09:13:32;;;;;;;11.75;7.75;;;4.90;99.90;;;;;;5053522;28;20055;-62
2021/11/28 09:16:00;;;;;;;8.52;6.25;;;5.00;99.90;;;;;;5057894;28;20017;-61
2021/11/28 09:18:35;;;;;;;9.27;6.32;;;5.00;99.90;;;;;;5054061;28;20068;-63
2021/11/28 09:21:03;;;;;;;10.20;6.07;;;5.20;99.90;;;;;;5054003;28;20021;-61
2021/11/28 09:26:13;;;;;;;10.48;6.70;;;5.10;99.90;;;;;;5053831;28;20095;-62
2021/11/28 09:28:39;;;;;;;13.15;6.72;;;5.10;99.90;;;;;;5053986;28;20365;-62
2021/11/28 09:31:10;;;;;;;11.07;6.70;;;5.10;99.90;;;;;;5053737;28;20122;-63
2021/11/28 09:33:41;;;;;;;11.10;6.03;;;5.20;99.90;;;;;;5053730;28;20055;-61
2021/11/28 09:36:11;;;;;;;10.75;6.40;;;5.30;99.90;;;;;;5053757;28;20021;-68
2021/11/28 09:38:37;;;;;;;7.50;5.45;;;5.30;99.90;;;;;;5047160;28;20025;-68
2021/11/28 09:41:14;;;;;;;10.23;6.93;;;5.40;99.90;;;;;;5036009;28;20032;-62
2021/11/28 09:43:47;;;;;;;11.15;7.00;;;5.50;99.90;;;;;;5048424;28;20090;-62
2021/11/28 09:46:13;;;;;;;10.70;6.95;;;5.60;99.90;;;;;;5039008;28;20028;-63
2021/11/28 09:48:39;;;;;;;12.15;7.38;;;5.50;99.90;;;;;;5030978;28;20346;-61
2021/11/28 09:51:07;;;;;;;13.32;8.18;;;5.50;99.90;;;;;;5035897;28;20101;-63
2021/11/28 09:53:34;;;;;;;11.52;7.70;;;5.60;99.90;;;;;;5036009;28;20143;-63
2021/11/28 09:56:01;;;;;;;12.15;7.80;;;5.50;99.90;;;;;;5048166;28;20028;-64
2021/11/28 09:58:28;;;;;;;12.95;8.52;;;5.40;99.90;;;;;;5053791;28;20446;-63
2021/11/28 10:00:56;;;;;;;13.68;9.10;;;5.30;99.90;;;;;;5019616;28;20024;-62
2021/11/28 10:03:22;;;;;;;12.27;7.30;;;5.30;99.90;;;;;;5053267;28;20033;-62
2021/11/28 10:05:51;;;;;;;12.32;7.80;;;5.40;99.90;;;;;;5053439;28;20021;-63
2021/11/28 10:08:22;;;;;;;11.95;7.70;;;5.40;99.90;;;;;;5053243;28;20112;-64
2021/11/28 10:11:17;;;;;;;10.73;7.05;;;5.30;99.90;;;;;;5053428;28;20037;-64
2021/11/28 10:13:47;;;;;;;12.52;7.22;;;5.30;99.90;;;;;;5045292;28;20052;-63
2021/11/28 10:16:16;;;;;;;12.88;7.38;;;5.20;99.90;;;;;;5057751;28;20378;-65
2021/11/28 10:18:42;;;;;;;13.07;7.03;;;5.10;99.90;;;;;;5053260;28;20044;-66
2021/11/28 10:21:10;;;;;;;10.48;7.72;;;5.10;99.90;;;;;;5053429;28;20017;-66
2021/11/28 10:24:10;;;;;;;12.38;7.90;;;5.10;99.90;;;;;;5053536;28;20021;-63
2021/11/28 10:26:50;;;;;;;9.15;6.82;;;5.00;99.90;;;;;;5051555;28;20123;-66
2021/11/28 10:29:16;;;;;;;12.27;7.72;;;4.90;99.90;;;;;;5056855;28;20033;-64
2021/11/28 10:31:49;;;;;;;12.70;7.47;;;4.90;99.90;;;;;;5053108;28;20020;-65
2021/11/28 10:34:23;;;;;;;12.70;7.35;;;4.90;99.90;;;;;;5055078;28;20401;-65
2021/11/28 10:36:51;;;;;;;11.15;7.05;;;4.90;99.90;;;;;;5031525;28;20021;-64
2021/11/28 10:39:22;;;;;;;11.00;7.05;;;5.00;99.90;;;;;;5057162;28;20017;-64
2021/11/28 10:41:54;;;;;;;10.57;6.38;;;4.80;99.90;;;;;;5053142;28;20017;-63
2021/11/28 10:44:22;;;;;;;12.38;7.75;;;4.80;99.90;;;;;;5058910;28;20035;-64
2021/11/28 10:46:48;;;;;;;10.55;7.13;;;4.90;99.90;;;;;;5044952;28;20163;-64
2021/11/28 10:49:19;;;;;;;16.75;7.57;;;5.00;99.90;;;;;;5053046;28;20023;-62
2021/11/28 10:51:50;;;;;;;11.82;8.18;;;5.10;99.90;;;;;;5055237;28;20178;-63
2021/11/28 10:54:32;;;;;;;12.70;7.50;;;5.10;99.90;;;;;;5049375;28;20017;-62
2021/11/28 10:57:07;;;;;;;10.27;7.35;;;5.10;99.90;;;;;;5062117;28;20025;-63
2021/11/28 10:59:38;;;;;;;11.32;7.85;;;4.90;99.90;;;;;;5057087;28;20035;-63
2021/11/28 11:02:42;;;;;;;15.35;8.38;;;5.00;99.90;;;;;;5056114;28;20043;-61
2021/11/28 11:05:11;;;;;;;13.73;8.15;;;5.20;99.90;;;;;;4955794;28;20051;-65
2021/11/28 11:07:41;;;;;;;13.60;8.25;;;5.20;99.90;;;;;;5040233;28;20442;-62
2021/11/28 11:10:25;;;;;;;15.32;7.90;;;5.10;99.90;;;;;;5040713;28;20453;-62
2021/11/28 11:12:52;;;;;;;11.52;7.32;;;5.10;99.90;;;;;;5056233;28;20340;-63
2021/11/28 11:15:36;;;;;;;11.60;8.05;;;5.10;99.90;;;;;;5055729;28;20089;-63
2021/11/28 11:18:04;;;;;;;15.27;7.47;;;5.20;99.90;;;;;;5063341;28;20039;-62
2021/11/28 11:20:36;;;;;;;13.23;7.32;;;5.20;99.90;;;;;;5058821;28;20051;-62
2021/11/28 11:23:02;;;;;;;12.43;7.75;;;5.20;99.90;;;;;;5032512;28;20028;-62
2021/11/28 11:25:36;;;;;;;14.35;8.00;;;5.20;99.90;;;;;;5056185;28;20041;-63
2021/11/28 11:28:13;;;;;;;12.32;7.90;;;5.20;99.90;;;;;;5055806;28;20036;-64
2021/11/28 11:30:41;;;;;;;14.23;7.80;;;5.10;99.90;;;;;;5053134;28;20493;-64
2021/11/28 11:33:10;;;;;;;15.15;8.10;;;5.10;99.90;;;;;;5059976;28;20024;-63
2021/11/28 11:35:40;;;;;;;12.32;7.60;;;5.20;99.90;;;;;;5056104;28;20028;-64
2021/11/28 11:38:12;;;;;;;12.63;8.35;;;5.40;99.90;;;;;;5057980;28;20339;-63
2021/11/28 11:40:38;;;;;;;12.63;7.93;;;5.40;99.90;;;;;;5055936;28;20088;-65
2021/11/28 11:43:04;;;;;;;15.65;8.80;;;5.40;99.90;;;;;;5060772;28;20154;-63
2021/11/28 11:45:37;;;;;;;16.55;9.32;;;5.50;99.90;;;;;;5055758;28;20415;-63
2021/11/28 11:48:08;;;;;;;11.75;8.35;;;5.50;99.90;;;;;;5058083;28;20036;-62
2021/11/28 11:50:35;;;;;;;13.95;9.05;;;5.60;99.90;;;;;;5066209;28;20025;-62
2021/11/28 11:53:05;;;;;;;13.02;8.77;;;5.70;99.90;;;;;;5044273;28;20450;-63
2021/11/28 11:55:37;;;;;;;13.60;9.57;;;5.80;99.90;;;;;;5055730;28;20043;-62
2021/11/28 11:58:32;;;;;;;16.85;9.93;;;5.60;99.90;;;;;;5058292;28;20021;-63
2021/11/28 12:01:17;;;;;;;13.65;8.60;;;5.70;99.90;;;;;;5050081;28;20029;-64
2021/11/28 12:03:52;;;;;;;16.52;9.27;;;5.80;99.90;;;;;;5054111;28;20094;-61
2021/11/28 12:06:40;;;;;;;16.50;9.95;;;5.60;99.90;;;;;;5055528;28;20239;-62
2021/11/28 12:09:29;;;;;;;19.88;10.68;;;5.50;99.90;;;;;;5059934;28;20417;-63
2021/11/28 12:12:08;;;;;;;13.50;9.25;;;5.50;99.90;;;;;;5037898;28;20033;-63
2021/11/28 12:14:36;;;;;;;15.43;9.18;;;5.50;99.90;;;;;;5058524;28;20040;-63
2021/11/28 12:17:38;;;;;;;15.73;9.13;;;5.50;99.90;;;;;;5055331;28;20052;-62
2021/11/28 12:20:05;;;;;;;18.25;9.90;;;5.50;99.90;;;;;;5064709;28;20074;-60
2021/11/28 12:22:51;;;;;;;14.77;9.90;;;5.60;99.90;;;;;;5065582;28;20450;-63
2021/11/28 12:25:43;;;;;;;18.38;10.10;;;5.50;99.90;;;;;;5057761;28;20058;-62
2021/11/28 12:28:20;;;;;;;15.82;9.60;;;5.50;99.90;;;;;;5050190;28;20419;-63
2021/11/28 12:30:56;;;;;;;14.73;9.60;;;5.60;99.90;;;;;;5060256;28;20021;-62
2021/11/28 12:33:49;;;;;;;16.27;10.20;;;5.50;99.90;;;;;;5054667;28;20468;-62
2021/11/28 12:36:38;;;;;;;19.63;12.40;;;5.70;99.90;;;;;;5057479;28;20171;-62
2021/11/28 12:39:13;;;;;;;25.95;15.05;;;5.90;99.90;;;;;;5052849;28;20044;-79
2021/11/28 12:41:55;;;;;;;;;;;;;;;;;;;;;
2021/11/28 12:44:10;;;;;;;;;;;5.60;99.90;;;;;;5050501;28;20388;-57
